Time;durP1;ratioP1;P1;durP2;ratioP2;P2;SDS_P1;SDS_P2;PMS_P1;PMS_P2;Temp;Humidity;BMP_temperature;BMP_pressure;BME280_temperature;BME280_humidity;BME280_pressure;Samples;Min_cycle;Max_cycle;Signal;HPM_P1;HPM_P2
2023/06/08 00:00:41;;;;;;;11.93;6.65;;;;;;;13.73;79.97;102018.63;5094157;28;20076;-81
2023/06/08 00:03:08;;;;;;;13.77;7.22;;;;;;;13.68;80.33;102024.53;5092327;28;20061;-81
2023/06/08 00:05:43;;;;;;;8.88;6.63;;;;;;;13.65;80.12;102018.09;5092654;28;20502;-81
2023/06/08 00:08:11;;;;;;;12.68;7.10;;;;;;;13.61;80.13;102022.06;5093626;28;20079;-80
2023/06/08 00:10:40;;;;;;;12.35;6.97;;;;;;;13.55;80.52;102013.84;5092791;28;20048;-80
2023/06/08 00:13:07;;;;;;;15.80;6.82;;;;;;;13.50;80.59;102011.72;5098297;28;20088;-80
2023/06/08 00:15:33;;;;;;;11.10;6.97;;;;;;;13.45;80.89;102008.81;5095227;28;20045;-80
2023/06/08 00:18:01;;;;;;;12.32;7.40;;;;;;;13.42;81.14;102007.00;5093808;28;20520;-81
2023/06/08 00:20:28;;;;;;;15.85;7.47;;;;;;;13.34;81.14;102004.53;5093200;28;20448;-80
2023/06/08 00:22:56;;;;;;;13.65;7.50;;;;;;;13.29;81.67;102001.63;5093720;28;20132;-80
2023/06/08 00:25:22;;;;;;;15.40;6.80;;;;;;;13.25;81.46;101998.31;5093781;28;20041;-80
2023/06/08 00:27:49;;;;;;;15.48;7.38;;;;;;;13.23;82.31;102000.66;5092436;28;20489;-83
2023/06/08 00:30:15;;;;;;;10.60;7.13;;;;;;;13.20;82.14;101999.59;5093621;28;20111;-81
2023/06/08 00:32:42;;;;;;;10.65;7.20;;;;;;;13.18;82.10;102003.91;5091784;28;20067;-80
2023/06/08 00:35:09;;;;;;;9.82;6.88;;;;;;;13.11;82.47;101996.81;5093037;28;20493;-80
2023/06/08 00:37:36;;;;;;;17.63;7.22;;;;;;;13.05;82.64;101997.75;5092191;28;20136;-81
2023/06/08 00:40:06;;;;;;;14.15;7.13;;;;;;;12.99;82.96;101998.28;5091619;28;20524;-81
2023/06/08 00:42:34;;;;;;;15.00;7.15;;;;;;;12.96;82.81;102001.03;5091747;28;20539;-80
2023/06/08 00:45:02;;;;;;;13.70;7.18;;;;;;;12.92;83.04;101997.72;5092945;28;20049;-79
2023/06/08 00:47:28;;;;;;;11.88;7.20;;;;;;;12.88;83.83;101992.47;5099668;28;20045;-80
2023/06/08 00:49:56;;;;;;;15.07;7.40;;;;;;;12.85;83.73;101993.31;5091476;28;20055;-81
2023/06/08 00:52:23;;;;;;;13.23;7.45;;;;;;;12.79;84.22;101997.72;5091916;28;20056;-81
2023/06/08 00:54:51;;;;;;;11.65;6.78;;;;;;;12.78;84.42;102000.81;5091836;28;20082;-81
2023/06/08 00:57:19;;;;;;;13.73;7.00;;;;;;;12.75;84.15;101997.06;5091712;28;20102;-81
2023/06/08 00:59:51;;;;;;;11.82;7.40;;;;;;;12.71;84.28;101988.38;5090883;28;20178;-81
2023/06/08 01:02:18;;;;;;;16.45;7.65;;;;;;;12.71;84.20;101996.41;5091646;28;20084;-81
2023/06/08 01:04:45;;;;;;;13.77;7.07;;;;;;;12.67;84.68;101998.41;5091059;28;20525;-81
2023/06/08 01:07:49;;;;;;;13.85;7.28;;;;;;;12.62;83.97;101991.66;5092946;28;20044;-81
2023/06/08 01:10:28;;;;;;;12.52;7.47;;;;;;;12.61;84.35;101992.09;5061639;28;20070;-81
2023/06/08 01:13:08;;;;;;;15.63;7.32;;;;;;;12.59;84.46;101991.75;5091011;28;20064;-81
2023/06/08 01:15:42;;;;;;;14.57;7.03;;;;;;;12.55;84.80;101983.84;5093540;28;20036;-81
2023/06/08 01:18:13;;;;;;;10.38;6.70;;;;;;;12.51;85.20;101991.19;5091448;28;20535;-81
2023/06/08 01:21:07;;;;;;;10.38;7.20;;;;;;;12.50;84.77;101991.63;5103479;28;20083;-80
2023/06/08 01:23:55;;;;;;;14.43;7.13;;;;;;;12.48;85.14;101980.59;5091775;28;20045;-81
2023/06/08 01:26:25;;;;;;;11.93;7.60;;;;;;;12.45;85.43;101986.78;5091348;28;20075;-80
2023/06/08 01:28:51;;;;;;;8.77;7.47;;;;;;;12.42;85.75;101983.03;5090991;28;20551;-81
2023/06/08 01:31:20;;;;;;;12.27;7.57;;;;;;;12.39;86.20;101977.81;5091113;28;20151;-81
2023/06/08 01:33:47;;;;;;;13.85;7.90;;;;;;;12.36;86.04;101987.41;5090407;28;20044;-80
2023/06/08 01:36:25;;;;;;;15.00;7.32;;;;;;;12.33;86.58;101981.00;5090853;28;20048;-81
2023/06/08 01:38:59;;;;;;;9.52;6.70;;;;;;;12.32;86.16;101979.50;5091220;28;20041;-81
2023/06/08 01:41:30;;;;;;;13.13;6.90;;;;;;;12.32;86.50;101987.50;5092472;28;20187;-81
2023/06/08 01:43:59;;;;;;;15.20;7.60;;;;;;;12.32;86.67;101982.16;5092146;28;20044;-81
2023/06/08 01:46:28;;;;;;;12.48;7.25;;;;;;;12.31;86.85;101983.34;5090957;28;20365;-81
2023/06/08 01:48:58;;;;;;;13.75;7.38;;;;;;;12.30;86.69;101983.75;5090297;28;20053;-82
2023/06/08 01:51:26;;;;;;;11.32;6.97;;;;;;;12.28;87.20;101978.09;5095853;28;20092;-80
2023/06/08 01:54:11;;;;;;;12.75;7.28;;;;;;;12.23;86.48;101976.69;5096832;28;20531;-80
2023/06/08 01:56:39;;;;;;;11.20;7.13;;;;;;;12.21;86.99;101975.59;5091456;28;20072;-81
2023/06/08 01:59:06;;;;;;;13.65;7.57;;;;;;;12.17;87.24;101965.00;5091572;28;20048;-79
2023/06/08 02:01:32;;;;;;;13.05;7.72;;;;;;;12.16;87.23;101978.78;5074704;28;20053;-80
2023/06/08 02:03:59;;;;;;;14.45;7.40;;;;;;;12.12;87.12;101968.19;5073420;28;20055;-81
2023/06/08 02:06:26;;;;;;;15.98;7.53;;;;;;;12.09;87.28;101968.25;5091100;28;20083;-81
2023/06/08 02:08:53;;;;;;;9.93;7.07;;;;;;;12.03;87.02;101968.03;5073935;28;20516;-81
2023/06/08 02:11:21;;;;;;;14.95;7.50;;;;;;;11.99;87.14;101968.13;5092238;28;20055;-80
2023/06/08 02:13:48;;;;;;;17.13;7.60;;;;;;;11.96;87.17;101966.31;5094989;28;20087;-80
2023/06/08 02:16:18;;;;;;;13.48;7.90;;;;;;;11.93;87.13;101969.06;5095790;28;20087;-80
2023/06/08 02:18:45;;;;;;;11.52;8.05;;;;;;;11.90;86.85;101970.63;5093673;28;20051;-80
2023/06/08 02:21:12;;;;;;;15.38;7.65;;;;;;;11.88;86.91;101966.88;5093909;28;20074;-81
2023/06/08 02:23:38;;;;;;;17.83;8.10;;;;;;;11.85;87.22;101967.72;5094054;28;20147;-80
2023/06/08 02:26:06;;;;;;;12.80;7.68;;;;;;;11.84;87.06;101964.31;5110381;28;20052;-80
2023/06/08 02:28:33;;;;;;;14.10;7.90;;;;;;;11.79;87.61;101966.72;5095150;28;20075;-80
2023/06/08 02:31:03;;;;;;;11.43;8.32;;;;;;;11.75;87.65;101961.44;5093519;28;20040;-80
2023/06/08 02:33:30;;;;;;;16.88;7.90;;;;;;;11.73;87.99;101971.03;5094347;28;20045;-81
2023/06/08 02:35:57;;;;;;;11.70;7.85;;;;;;;11.69;87.70;101966.53;5095255;28;20045;-80
2023/06/08 02:38:25;;;;;;;16.40;9.02;;;;;;;11.63;87.83;101962.09;5093989;28;20040;-81
2023/06/08 02:40:51;;;;;;;13.93;8.40;;;;;;;11.61;87.99;101961.75;5093693;28;20098;-80
2023/06/08 02:43:19;;;;;;;17.00;9.00;;;;;;;11.58;88.50;101963.38;5095076;28;20163;-80
2023/06/08 02:45:48;;;;;;;13.50;9.13;;;;;;;11.58;88.44;101966.03;5093477;28;20068;-81
2023/06/08 02:48:17;;;;;;;15.48;8.63;;;;;;;11.54;88.68;101962.69;5076643;28;20092;-81
2023/06/08 02:50:44;;;;;;;13.75;8.60;;;;;;;11.54;88.67;101965.38;5093494;28;20057;-80
2023/06/08 02:53:11;;;;;;;14.20;9.38;;;;;;;11.54;88.40;101965.38;5093255;28;20108;-80
2023/06/08 02:55:37;;;;;;;12.85;8.60;;;;;;;11.49;88.74;101971.19;5095059;28;20109;-80
2023/06/08 02:58:10;;;;;;;17.88;9.75;;;;;;;11.47;88.67;101967.44;5104575;28;20068;-80
2023/06/08 03:00:37;;;;;;;16.70;10.18;;;;;;;11.44;88.57;101966.34;5093518;28;20045;-80
2023/06/08 03:03:27;;;;;;;13.57;8.60;;;;;;;11.44;88.78;101970.94;5093153;28;20056;-81
2023/06/08 03:06:00;;;;;;;15.85;9.23;;;;;;;11.42;88.70;101963.34;5077146;28;20126;-80
2023/06/08 03:08:34;;;;;;;19.30;9.02;;;;;;;11.40;88.95;101956.94;5093827;28;20049;-81
2023/06/08 03:11:01;;;;;;;13.63;9.52;;;;;;;11.38;89.10;101957.34;5093008;28;20072;-81
2023/06/08 03:13:28;;;;;;;18.45;9.10;;;;;;;11.35;88.89;101955.50;5075760;28;20057;-80
2023/06/08 03:15:55;;;;;;;14.15;9.57;;;;;;;11.31;89.55;101955.59;5092633;28;20480;-80
2023/06/08 03:18:22;;;;;;;15.02;9.40;;;;;;;11.28;89.77;101945.00;5092814;28;20044;-80
2023/06/08 03:20:51;;;;;;;14.95;9.63;;;;;;;11.28;90.08;101942.34;5076374;28;20507;-81
2023/06/08 03:23:21;;;;;;;14.95;9.27;;;;;;;11.24;90.03;101947.75;5092386;28;20052;-80
2023/06/08 03:25:50;;;;;;;14.55;10.18;;;;;;;11.22;90.20;101954.66;5092493;28;20057;-80
2023/06/08 03:28:18;;;;;;;14.70;9.80;;;;;;;11.21;90.21;101953.91;5092751;28;20044;-80
2023/06/08 03:30:46;;;;;;;13.63;8.82;;;;;;;11.17;90.76;101950.59;5099011;28;20040;-81
2023/06/08 03:33:15;;;;;;;13.63;9.32;;;;;;;11.17;90.75;101947.16;5096967;28;20057;-81
2023/06/08 03:35:49;;;;;;;14.38;9.38;;;;;;;11.18;90.50;101954.75;5094946;28;20413;-80
2023/06/08 03:38:21;;;;;;;12.50;9.32;;;;;;;11.20;90.98;101949.72;5076729;28;20143;-81
2023/06/08 03:40:49;;;;;;;11.75;9.52;;;;;;;11.20;90.63;101959.63;5092743;28;20044;-80
2023/06/08 03:43:19;;;;;;;19.17;10.30;;;;;;;11.18;90.79;101949.41;5092911;28;20049;-81
2023/06/08 03:45:47;;;;;;;13.98;9.65;;;;;;;11.20;90.89;101959.63;5092645;28;20139;-82
2023/06/08 03:48:14;;;;;;;19.92;10.45;;;;;;;11.19;90.97;101950.16;5092628;28;20102;-81
2023/06/08 03:50:43;;;;;;;17.52;9.55;;;;;;;11.19;91.00;101952.84;5093985;28;20070;-81
2023/06/08 03:53:11;;;;;;;21.35;10.40;;;;;;;11.21;90.71;101948.56;5092401;28;20041;-81
2023/06/08 03:55:38;;;;;;;26.98;10.65;;;;;;;11.21;90.88;101940.56;5092488;28;20056;-81
2023/06/08 03:58:05;;;;;;;11.90;9.52;;;;;;;11.18;90.88;101938.75;5093597;28;20041;-80
2023/06/08 04:00:32;;;;;;;16.38;9.95;;;;;;;11.18;90.80;101952.09;5092621;28;20102;-81
2023/06/08 04:02:58;;;;;;;21.58;10.18;;;;;;;11.16;90.70;101953.66;5094276;28;20118;-80
2023/06/08 04:05:25;;;;;;;17.05;10.38;;;;;;;11.18;91.02;101951.34;5103671;28;20041;-81
2023/06/08 04:07:52;;;;;;;13.93;9.85;;;;;;;11.11;91.08;101959.47;5092538;28;20071;-79
2023/06/08 04:10:19;;;;;;;20.23;10.85;;;;;;;11.12;91.33;101964.41;5094130;28;20127;-80
2023/06/08 04:12:47;;;;;;;19.42;10.55;;;;;;;11.14;91.24;101963.97;5093254;28;20064;-80
2023/06/08 04:15:13;;;;;;;17.20;10.80;;;;;;;11.13;91.13;101960.56;5092368;28;20051;-80
2023/06/08 04:17:43;;;;;;;18.73;11.00;;;;;;;11.13;90.83;101957.16;5092154;28;20098;-80
2023/06/08 04:20:12;;;;;;;19.95;11.45;;;;;;;11.15;90.95;101949.50;5092018;28;20055;-80
2023/06/08 04:22:38;;;;;;;19.20;10.45;;;;;;;11.17;91.02;101957.81;5091868;28;20060;-80
2023/06/08 04:25:06;;;;;;;18.15;11.30;;;;;;;11.18;90.52;101949.41;5091965;28;20049;-80
2023/06/08 04:27:34;;;;;;;16.38;10.65;;;;;;;11.17;90.91;101941.84;5091566;28;20041;-80
2023/06/08 04:30:02;;;;;;;17.33;11.32;;;;;;;11.17;90.51;101947.91;5074994;28;20051;-79
2023/06/08 04:32:31;;;;;;;17.30;12.23;;;;;;;11.19;90.54;101944.84;5091857;28;20051;-79
2023/06/08 04:35:00;;;;;;;18.25;11.25;;;;;;;11.17;90.73;101939.16;5090863;28;20429;-80
2023/06/08 04:37:26;;;;;;;20.17;12.07;;;;;;;11.16;90.88;101940.34;5099004;28;20535;-79
2023/06/08 04:39:56;;;;;;;17.98;11.32;;;;;;;11.17;90.68;101939.16;5098347;28;20112;-79
2023/06/08 04:42:27;;;;;;;17.20;12.13;;;;;;;11.17;91.13;101936.50;5091459;28;20304;-79
2023/06/08 04:44:54;;;;;;;17.88;11.65;;;;;;;11.20;91.11;101940.97;5092016;28;20535;-79
2023/06/08 04:47:21;;;;;;;20.15;12.15;;;;;;;11.25;91.11;101941.25;5091927;28;20051;-79
2023/06/08 04:49:48;;;;;;;21.25;12.52;;;;;;;11.28;90.48;101937.00;5091597;28;20068;-79
2023/06/08 04:52:16;;;;;;;16.77;12.60;;;;;;;11.35;90.72;101942.19;5074803;28;20052;-79
2023/06/08 04:54:46;;;;;;;17.40;12.23;;;;;;;11.43;90.52;101938.19;5092013;28;20040;-79
2023/06/08 04:57:15;;;;;;;22.40;11.77;;;;;;;11.54;90.39;101937.94;5091200;28;20433;-79
2023/06/08 04:59:42;;;;;;;18.85;12.70;;;;;;;11.62;89.83;101937.34;5091716;28;20048;-79
2023/06/08 05:02:11;;;;;;;20.55;12.60;;;;;;;11.75;89.29;101937.44;5091800;28;20126;-80
2023/06/08 05:04:37;;;;;;;17.38;11.95;;;;;;;11.94;88.39;101938.53;5092439;28;20040;-81
2023/06/08 05:07:05;;;;;;;19.52;11.90;;;;;;;12.89;86.26;101940.53;5075599;28;20051;-80
2023/06/08 05:09:32;;;;;;;21.52;12.35;;;;;;;14.34;79.19;101940.50;5082070;28;20096;-80
2023/06/08 05:11:58;;;;;;;13.38;10.85;;;;;;;15.43;73.94;101938.78;5099724;28;20536;-81
2023/06/08 05:14:25;;;;;;;20.95;12.27;;;;;;;16.15;70.01;101942.75;5092766;28;20083;-81
2023/06/08 05:16:52;;;;;;;15.57;11.27;;;;;;;16.71;67.10;101938.81;5075657;28;20048;-81
2023/06/08 05:19:18;;;;;;;14.80;10.52;;;;;;;17.22;64.45;101934.09;5092098;28;20048;-82
2023/06/08 05:21:45;;;;;;;20.52;11.10;;;;;;;17.64;62.65;101930.53;5093659;28;20044;-81
2023/06/08 05:24:11;;;;;;;17.88;10.93;;;;;;;17.91;60.82;101935.75;5092023;28;20059;-79
2023/06/08 05:26:39;;;;;;;16.85;10.27;;;;;;;17.94;60.54;101934.84;5092706;28;20102;-76
2023/06/08 05:29:06;;;;;;;19.15;11.18;;;;;;;17.10;61.90;101935.06;5093387;28;20111;-79
2023/06/08 05:31:32;;;;;;;14.52;10.02;;;;;;;15.92;65.39;101936.06;5093364;28;20391;-81
2023/06/08 05:33:59;;;;;;;18.63;10.35;;;;;;;15.12;68.33;101934.22;5093584;28;20052;-78
2023/06/08 05:36:26;;;;;;;15.35;10.43;;;;;;;15.00;69.81;101935.81;5091679;28;20049;-81
2023/06/08 05:38:52;;;;;;;13.50;9.90;;;;;;;14.78;70.11;101945.13;5074981;28;20497;-80
2023/06/08 05:41:19;;;;;;;15.07;10.90;;;;;;;14.40;71.72;101931.88;5091629;28;20045;-80
2023/06/08 05:43:45;;;;;;;16.25;9.60;;;;;;;14.18;72.77;101926.53;5098261;28;20083;-80
2023/06/08 05:46:14;;;;;;;11.27;9.68;;;;;;;14.07;73.40;101931.50;5092999;28;20535;-80
2023/06/08 05:48:41;;;;;;;16.40;9.30;;;;;;;14.01;74.34;101936.66;5078890;28;20045;-82
2023/06/08 05:51:08;;;;;;;13.80;10.23;;;;;;;14.05;74.88;101942.66;5078643;28;20052;-80
2023/06/08 05:53:36;;;;;;;13.82;9.82;;;;;;;14.11;74.79;101932.88;5095554;28;20497;-80
2023/06/08 05:56:03;;;;;;;19.83;10.40;;;;;;;14.43;73.70;101931.78;5094882;28;20049;-80
2023/06/08 05:58:29;;;;;;;12.98;9.98;;;;;;;14.40;73.62;101923.84;5096741;28;20045;-80
2023/06/08 06:01:14;;;;;;;15.40;9.70;;;;;;;14.48;73.75;101919.75;5096623;28;20049;-80
2023/06/08 06:03:41;;;;;;;13.10;9.45;;;;;;;14.57;73.44;101919.81;5096919;28;20053;-84
2023/06/08 06:06:10;;;;;;;15.10;9.75;;;;;;;14.66;73.46;101917.94;5096884;28;20068;-86
2023/06/08 06:08:37;;;;;;;12.05;9.15;;;;;;;14.90;73.41;101917.44;5095143;28;20090;-86
2023/06/08 06:11:06;;;;;;;14.40;10.07;;;;;;;15.30;72.37;101915.50;5095677;28;20051;-83
2023/06/08 06:13:32;;;;;;;13.63;9.98;;;;;;;15.21;71.78;101912.03;5096704;28;20124;-83
2023/06/08 06:15:59;;;;;;;14.20;9.95;;;;;;;15.11;71.93;101913.97;5100591;28;20036;-82
2023/06/08 06:18:25;;;;;;;13.70;10.38;;;;;;;15.10;72.75;101917.09;5100918;28;20068;-82
2023/06/08 06:20:52;;;;;;;12.38;9.70;;;;;;;15.16;72.46;101916.06;5096142;28;20052;-81
2023/06/08 06:23:19;;;;;;;14.43;9.05;;;;;;;15.16;71.76;101921.44;5095396;28;20048;-82
2023/06/08 06:25:51;;;;;;;14.50;10.30;;;;;;;15.06;72.12;101927.19;5078567;28;20408;-82
2023/06/08 06:28:17;;;;;;;19.05;9.38;;;;;;;15.08;72.78;101924.81;5095947;28;20690;-81
2023/06/08 06:30:44;;;;;;;16.15;9.25;;;;;;;15.16;72.29;101923.38;5096300;28;20051;-88
2023/06/08 06:33:10;;;;;;;16.13;9.73;;;;;;;15.31;71.86;101919.66;5096110;28;20125;-80
2023/06/08 06:35:37;;;;;;;12.30;9.50;;;;;;;15.31;71.26;101916.25;5096199;28;20520;-84
2023/06/08 06:38:04;;;;;;;14.07;9.65;;;;;;;15.42;71.79;101919.25;5096090;28;20044;-83
2023/06/08 06:40:30;;;;;;;13.18;9.00;;;;;;;15.46;71.36;101930.59;5096303;28;20044;-86
2023/06/08 06:42:57;;;;;;;13.85;9.45;;;;;;;15.47;71.34;101924.03;5095876;28;20044;-79
2023/06/08 06:45:25;;;;;;;14.63;9.88;;;;;;;15.48;71.18;101924.78;5093916;28;20148;-80
2023/06/08 06:47:51;;;;;;;18.17;10.70;;;;;;;15.49;71.53;101921.66;5095699;28;20048;-81
2023/06/08 06:50:18;;;;;;;15.70;9.70;;;;;;;15.58;71.45;101926.34;5101411;28;20086;-82
2023/06/08 06:52:45;;;;;;;12.25;9.55;;;;;;;15.71;71.89;101926.19;5094703;28;20200;-81
2023/06/08 06:55:11;;;;;;;17.27;9.73;;;;;;;15.80;71.17;101923.50;5094096;28;20135;-82
2023/06/08 06:57:40;;;;;;;17.23;9.95;;;;;;;15.93;71.15;101924.88;5093460;28;20102;-82
2023/06/08 07:00:07;;;;;;;12.85;9.27;;;;;;;16.11;70.64;101934.09;5094158;28;20044;-84
2023/06/08 07:02:37;;;;;;;12.60;9.05;;;;;;;16.24;70.64;101932.75;5094052;28;20055;-77
2023/06/08 07:05:07;;;;;;;12.43;9.15;;;;;;;16.37;69.78;101931.84;5095455;28;20405;-80
2023/06/08 07:07:34;;;;;;;13.85;9.25;;;;;;;16.51;69.14;101929.25;5093472;28;20044;-79
2023/06/08 07:10:01;;;;;;;10.43;8.88;;;;;;;16.57;69.12;101916.69;5094307;28;20168;-78
2023/06/08 07:12:30;;;;;;;15.82;10.10;;;;;;;16.64;69.31;101919.09;5093400;28;20110;-78
2023/06/08 07:14:56;;;;;;;13.88;9.35;;;;;;;16.78;68.57;101922.34;5093122;28;20355;-78
2023/06/08 07:17:23;;;;;;;14.95;9.20;;;;;;;16.94;67.16;101930.78;5093759;28;20078;-79
2023/06/08 07:19:51;;;;;;;14.57;9.32;;;;;;;17.19;66.48;101928.91;5092865;28;20056;-78
2023/06/08 07:22:18;;;;;;;11.10;8.85;;;;;;;17.61;65.63;101926.81;5097995;28;20040;-78
2023/06/08 07:25:06;;;;;;;11.75;9.00;;;;;;;18.07;64.98;101925.75;5098265;28;20071;-83
2023/06/08 07:27:53;;;;;;;14.35;8.63;;;;;;;18.29;63.30;101924.19;5092892;28;20099;-79
2023/06/08 07:30:19;;;;;;;17.35;9.73;;;;;;;18.27;62.98;101925.88;5092703;28;20446;-78
2023/06/08 07:32:46;;;;;;;12.52;9.55;;;;;;;18.35;61.81;101937.03;5092894;28;20049;-78
2023/06/08 07:35:12;;;;;;;13.95;9.52;;;;;;;18.36;61.64;101933.88;5090883;28;20505;-79
2023/06/08 07:37:39;;;;;;;10.20;9.23;;;;;;;18.25;61.83;101929.03;5092557;28;20037;-79
2023/06/08 07:40:07;;;;;;;17.77;9.32;;;;;;;18.41;61.56;101925.09;5074045;28;20094;-78
2023/06/08 07:42:35;;;;;;;17.40;8.98;;;;;;;18.68;60.87;101934.91;5092937;28;20128;-79
2023/06/08 07:45:01;;;;;;;17.48;9.48;;;;;;;18.89;60.23;101925.63;5093230;28;20593;-79
2023/06/08 07:47:28;;;;;;;16.67;9.60;;;;;;;18.90;59.12;101926.38;5094476;28;20119;-79
2023/06/08 07:49:55;;;;;;;15.90;9.35;;;;;;;18.91;59.85;101931.31;5093005;28;20045;-79
2023/06/08 07:52:22;;;;;;;14.77;9.10;;;;;;;19.10;59.48;101928.41;5092715;28;20536;-79
2023/06/08 07:54:48;;;;;;;13.85;8.60;;;;;;;19.25;58.76;101934.47;5076596;28;20059;-79
2023/06/08 07:57:15;;;;;;;18.38;9.10;;;;;;;19.33;58.95;101930.91;5099465;28;20075;-78
2023/06/08 07:59:42;;;;;;;13.63;9.50;;;;;;;19.47;57.95;101928.63;5076303;28;20063;-79
2023/06/08 08:02:09;;;;;;;10.35;8.73;;;;;;;19.44;58.15;101930.31;5094421;28;20509;-78
2023/06/08 08:04:36;;;;;;;13.13;9.43;;;;;;;19.64;57.00;101924.91;5075725;28;20057;-78
2023/06/08 08:07:04;;;;;;;15.07;9.75;;;;;;;19.86;56.37;101927.13;5092979;28;20483;-80
2023/06/08 08:09:32;;;;;;;12.60;8.77;;;;;;;20.06;55.65;101920.19;5092726;28;20040;-79
2023/06/08 08:11:59;;;;;;;10.00;8.13;;;;;;;20.31;55.26;101922.91;5075588;28;20052;-76
2023/06/08 08:14:25;;;;;;;11.63;8.88;;;;;;;20.33;54.62;101921.66;5094148;28;20509;-78
2023/06/08 08:16:52;;;;;;;12.57;8.77;;;;;;;20.54;54.62;101921.13;5093166;28;20105;-80
2023/06/08 08:19:19;;;;;;;10.18;8.25;;;;;;;20.83;53.96;101919.34;5092083;28;20048;-81
2023/06/08 08:21:46;;;;;;;11.07;8.63;;;;;;;21.03;52.61;101921.19;5092474;28;20066;-81
2023/06/08 08:24:12;;;;;;;13.82;8.50;;;;;;;21.25;52.02;101924.78;5092334;28;20053;-80
2023/06/08 08:26:43;;;;;;;17.92;8.80;;;;;;;21.18;52.97;101921.78;5092680;28;20083;-80
2023/06/08 08:29:09;;;;;;;12.80;8.98;;;;;;;21.34;52.62;101920.38;5097119;28;20044;-80
2023/06/08 08:31:36;;;;;;;13.05;9.40;;;;;;;21.51;52.22;101919.22;5097004;28;20116;-81
2023/06/08 08:34:03;;;;;;;10.00;8.35;;;;;;;21.62;52.09;101924.66;5092215;28;20047;-81
2023/06/08 08:36:30;;;;;;;15.73;9.50;;;;;;;21.37;51.82;101928.28;5092192;28;20072;-81
2023/06/08 08:38:57;;;;;;;11.85;9.10;;;;;;;20.97;53.24;101921.16;5092324;28;20140;-81
2023/06/08 08:41:28;;;;;;;12.95;8.90;;;;;;;20.78;54.43;101923.53;5093658;28;20045;-80
2023/06/08 08:43:57;;;;;;;;;;;;;;;20.64;54.96;101929.81;5076066;28;20053;-81
2023/06/08 08:46:25;;;;;;;16.58;9.65;;;;;;;20.42;55.33;101924.94;5088531;28;20401;-81
2023/06/08 08:48:58;;;;;;;14.38;9.40;;;;;;;20.50;55.34;101926.00;5079147;28;20094;-81
2023/06/08 08:51:25;;;;;;;12.32;8.82;;;;;;;20.52;55.58;101933.63;5093207;28;20470;-81
2023/06/08 08:53:52;;;;;;;14.63;9.35;;;;;;;20.66;55.28;101926.63;5099091;28;20044;-81
2023/06/08 08:56:20;;;;;;;15.38;9.80;;;;;;;20.77;54.36;101929.41;5112480;28;20079;-81
2023/06/08 08:58:50;;;;;;;18.67;9.23;;;;;;;20.96;54.28;101917.72;5111899;28;20413;-83
2023/06/08 09:01:18;;;;;;;14.93;9.38;;;;;;;21.05;54.19;101921.47;5112889;27;20505;-80
2023/06/08 09:03:46;;;;;;;19.02;9.45;;;;;;;21.37;53.89;101922.13;5119658;28;20050;-81
2023/06/08 09:06:13;;;;;;;11.57;9.40;;;;;;;21.57;52.16;101922.69;5113997;27;20052;-79
2023/06/08 09:08:40;;;;;;;11.02;8.90;;;;;;;21.78;52.58;101919.78;5098685;27;20119;-77
2023/06/08 09:11:09;;;;;;;13.80;8.25;;;;;;;21.90;51.67;101926.72;5091841;28;20048;-80
2023/06/08 09:13:38;;;;;;;14.23;8.68;;;;;;;22.07;51.40;101922.09;5092075;28;20057;-82
2023/06/08 09:16:16;;;;;;;15.43;9.52;;;;;;;22.03;51.37;101920.84;5091441;28;20052;-82
2023/06/08 09:18:44;;;;;;;12.32;8.80;;;;;;;21.91;50.87;101922.78;5092595;28;20044;-82
2023/06/08 09:21:27;;;;;;;11.98;8.60;;;;;;;21.86;52.02;101920.78;5090716;28;20477;-82
2023/06/08 09:24:16;;;;;;;15.90;9.00;;;;;;;21.81;52.16;101921.53;5093137;28;20056;-81
2023/06/08 09:26:51;;;;;;;18.58;8.65;;;;;;;21.63;52.54;101909.16;5093338;28;20127;-78
2023/06/08 09:29:39;;;;;;;12.25;9.07;;;;;;;21.66;52.45;101910.88;5093089;28;20040;-82
2023/06/08 09:32:09;;;;;;;14.15;8.57;;;;;;;21.64;52.51;101910.63;5092621;28;20040;-81
2023/06/08 09:34:53;;;;;;;14.75;9.02;;;;;;;21.61;52.05;101906.19;5092899;28;20123;-81
2023/06/08 09:37:26;;;;;;;12.48;8.48;;;;;;;21.53;52.46;101908.66;5101435;28;20044;-81
2023/06/08 09:39:53;;;;;;;13.05;9.05;;;;;;;21.54;52.13;101906.69;5116473;27;20040;-82
2023/06/08 09:42:20;;;;;;;16.00;9.27;;;;;;;21.55;52.91;101900.03;5113287;27;20040;-80
2023/06/08 09:44:46;;;;;;;16.50;8.63;;;;;;;21.52;52.67;101907.16;5113322;27;20556;-81
2023/06/08 09:47:27;;;;;;;15.75;8.63;;;;;;;21.58;52.85;101904.47;5112991;27;20481;-81
2023/06/08 09:49:55;;;;;;;30.52;21.65;;;;;;;21.49;52.32;101902.72;5113462;27;20536;-84
2023/06/08 09:52:25;;;;;;;13.95;9.13;;;;;;;21.53;53.32;101905.19;5113051;27;20064;-80
2023/06/08 09:54:52;;;;;;;14.57;9.18;;;;;;;21.59;52.33;101895.13;5113432;27;20044;-83
2023/06/08 09:57:22;;;;;;;13.25;8.60;;;;;;;21.62;52.43;101896.84;5111530;28;20041;-83
2023/06/08 10:00:14;;;;;;;14.48;8.70;;;;;;;21.66;52.85;101891.19;5112134;28;20111;-83
2023/06/08 10:02:53;;;;;;;12.07;8.75;;;;;;;21.70;52.20;101895.13;5109839;27;20047;-82
2023/06/08 10:05:22;;;;;;;14.07;8.32;;;;;;;21.80;52.30;101901.81;5111571;28;20976;-85
2023/06/08 10:07:54;;;;;;;13.23;8.20;;;;;;;21.90;52.92;101894.19;5099896;28;20044;-85
2023/06/08 10:10:25;;;;;;;15.25;8.70;;;;;;;22.05;50.91;101894.72;5118426;28;20039;-88
2023/06/08 10:12:52;;;;;;;15.55;8.70;;;;;;;22.22;50.64;101900.91;5111349;28;20045;-86
2023/06/08 10:15:21;;;;;;;14.68;8.90;;;;;;;22.45;49.85;101890.03;5092757;28;20102;-81
2023/06/08 10:17:50;;;;;;;15.93;8.95;;;;;;;22.42;49.36;101893.72;5092130;28;20139;-81
2023/06/08 10:20:17;;;;;;;12.00;8.80;;;;;;;22.49;49.49;101891.25;5092126;28;20048;-79
2023/06/08 10:22:45;;;;;;;14.77;8.13;;;;;;;22.88;49.35;101885.03;5092139;28;20485;-78
2023/06/08 10:25:13;;;;;;;11.55;8.77;;;;;;;23.27;48.63;101888.34;5091823;28;20045;-77
2023/06/08 10:27:47;;;;;;;12.95;8.18;;;;;;;23.60;47.87;101876.59;5092405;28;20041;-77
2023/06/08 10:30:33;;;;;;;11.50;8.18;;;;;;;23.87;47.55;101885.09;5091877;28;20499;-79
2023/06/08 10:33:08;;;;;;;14.75;8.52;;;;;;;24.14;46.63;101883.38;5093369;28;20044;-79
2023/06/08 10:35:36;;;;;;;8.65;7.78;;;;;;;24.14;46.20;101873.25;5094568;28;20032;-77
2023/06/08 10:38:14;;;;;;;11.27;7.63;;;;;;;24.18;45.88;101873.72;5103343;28;20040;-78
2023/06/08 10:40:49;;;;;;;10.02;8.00;;;;;;;24.78;45.24;101859.31;5114840;28;20051;-77
2023/06/08 10:43:15;;;;;;;13.60;6.80;;;;;;;25.13;44.81;101861.13;5115169;27;20035;-78
2023/06/08 10:46:03;;;;;;;14.90;7.55;;;;;;;25.44;43.65;101860.47;5115289;28;20040;-78
2023/06/08 10:48:37;;;;;;;12.30;7.90;;;;;;;25.16;43.32;101862.84;5115855;27;20040;-78
2023/06/08 10:51:09;;;;;;;14.45;8.00;;;;;;;25.01;42.99;101855.09;5116004;27;20076;-78
2023/06/08 10:53:56;;;;;;;9.53;7.97;;;;;;;25.15;44.06;101855.91;5114563;28;20044;-78
2023/06/08 10:56:27;;;;;;;16.52;7.70;;;;;;;25.19;42.48;101853.63;5114495;28;20254;-78
2023/06/08 10:58:54;;;;;;;15.05;7.72;;;;;;;25.17;43.03;101851.41;5114353;27;20044;-79
2023/06/08 11:01:21;;;;;;;10.95;7.80;;;;;;;25.19;41.82;101845.47;5095141;28;20506;-78
2023/06/08 11:03:48;;;;;;;11.75;7.40;;;;;;;25.26;42.25;101845.56;5095177;28;20040;-80
2023/06/08 11:06:15;;;;;;;11.35;7.57;;;;;;;25.20;42.05;101855.06;5093463;28;20131;-80
2023/06/08 11:08:42;;;;;;;9.07;7.05;;;;;;;25.23;42.69;101845.88;5095156;28;20077;-80
2023/06/08 11:11:11;;;;;;;10.70;6.55;;;;;;;25.72;42.14;101849.16;5094922;28;20049;-79
2023/06/08 11:13:38;;;;;;;11.50;6.72;;;;;;;26.16;41.18;101838.78;5094315;28;20501;-86
2023/06/08 11:16:05;;;;;;;11.32;7.75;;;;;;;26.14;40.35;101836.56;5095530;28;20843;-86
2023/06/08 11:18:33;;;;;;;11.88;7.10;;;;;;;26.16;40.12;101834.06;5102920;28;20140;-84
2023/06/08 11:20:59;;;;;;;11.23;7.18;;;;;;;26.34;40.02;101838.00;5096602;28;20048;-85
2023/06/08 11:23:31;;;;;;;14.40;7.10;;;;;;;26.34;40.02;101832.53;5095104;28;20484;-82
2023/06/08 11:25:57;;;;;;;11.45;6.60;;;;;;;26.40;40.29;101824.22;5095541;28;20052;-82